Latest Weather Observations for Cape Grim

IDT60801

Issued at 11:05 am EDT Thursday 27 November 2014 (issued every 30 minutes, with the page automatically refreshed every 10 minutes)

About weather observations | Map of weather stations | Latest weather observations for TAS | Other Formats
Station Details ID: 091331 Name: CAPE GRIM Lat: -40.68 Lon: 144.69 Height: 86.0 m
Data from the previous 72 hours. | See also: Recent months at Cape Grim
Date/Time
EDT
Temp
°C
App
Temp
°C
Dew
Point
Rel
Hum
%
Delta-T
°C
Wind Press
QNH
hPa
Press
MSL
hPa
Rain
since 9 am
mm
Dir
 
Spd
km/h
Gust
km/h
Spd
kts
Gust
kts
27/11:00am 12.9 5.4 6.3 64 3.1 SSW 35 54 19 29 1025.6 1025.6 0.0
27/10:44am 12.7 4.9 6.5 66 2.9 SW 37 57 20 31 1025.7 1025.7 0.0
27/10:30am 12.8 5.3 6.4 65 3.0 SW 35 48 19 26 1025.7 1025.7 0.0
27/10:00am 13.0 6.0 6.8 66 3.0 SSW 33 48 18 26 1025.8 1025.8 0.0
27/09:30am 12.7 5.3 6.7 67 2.9 SSW 35 48 19 26 1025.9 1025.9 0.0
27/09:00am 11.8 3.9 6.3 69 2.6 SW 37 48 20 26 1026.1 1026.1 0.0
27/08:30am 12.0 5.3 5.6 65 3.0 SSW 30 41 16 22 1025.9 1025.9 0.0
27/08:00am 11.5 5.2 5.6 67 2.7 SSW 28 43 15 23 1025.7 1025.7 0.0
27/07:30am 11.3 4.7 6.2 71 2.4 SSW 30 41 16 22 1025.4 1025.4 0.0
27/07:00am 11.1 4.7 5.2 67 2.7 SSW 28 46 15 25 1025.1 1025.1 0.0
27/06:59am 11.1 4.7 5.2 67 2.7 SSW 28 46 15 25 1025.1 1025.1 0.0
27/06:30am 10.8 4.8 5.3 69 2.5 SSW 26 39 14 21 1024.9 1024.9 0.0
27/06:00am 10.4 3.7 5.4 71 2.3 SSW 30 41 16 22 1024.4 1024.4 0.0
27/05:30am 10.3 3.0 4.7 68 2.5 SSW 32 41 17 22 1024.3 1024.3 0.0
27/05:07am 10.9 4.2 5.4 69 2.5 S 30 50 16 27 1024.0 1024.0 0.0
27/05:00am 10.9 3.8 5.4 69 2.5 SSW 32 41 17 22 1023.9 1023.9 0.0
27/04:49am 10.9 4.1 5.2 68 2.6 S 30 48 16 26 1024.0 1024.0 0.0
27/04:30am 11.1 4.0 5.4 68 2.6 SSW 32 43 17 23 1023.9 1023.9 0.0
27/04:00am 10.7 3.9 5.0 68 2.6 SSW 30 41 16 22 1023.8 1023.8 0.0
27/03:30am 10.9 4.5 5.4 69 2.5 SSW 28 41 15 22 1023.6 1023.6 0.0
27/03:00am 10.7 3.8 4.8 67 2.7 SSW 30 44 16 24 1023.5 1023.5 0.0
27/02:30am 11.1 4.4 5.8 70 2.5 SW 30 43 16 23 1023.5 1023.5 0.0
27/02:00am 11.0 3.9 5.3 68 2.6 SSW 32 43 17 23 1023.4 1023.4 0.0
27/01:49am 11.2 4.5 5.7 69 2.6 SSW 30 48 16 26 1023.3 1023.3 0.0
27/01:30am 11.1 3.4 5.4 68 2.6 SSW 35 50 19 27 1023.4 1023.4 0.0
27/01:00am 11.0 3.6 5.1 67 2.7 SSW 33 44 18 24 1023.5 1023.5 0.0
27/12:30am 11.0 3.9 5.5 69 2.5 SSW 32 41 17 22 1023.7 1023.7 0.0
27/12:01am 10.9 3.1 4.8 66 2.8 SSW 35 54 19 29 1023.7 1023.7 0.0
27/12:00am 11.0 2.8 4.7 65 2.8 SSW 37 54 20 29 1023.7 1023.7 0.0
 
Date/Time
EDT
Temp
°C
App
Temp
°C
Dew
Point
Rel
Hum
%
Delta-T
°C
Wind Press
QNH
hPa
Press
MSL
hPa
Rain
since 9 am
mm
Dir
 
Spd
km/h
Gust
km/h
Spd
kts
Gust
kts
26/11:36pm 11.1 3.3 4.8 65 2.9 SSW 35 54 19 29 1023.7 1023.7 0.0
26/11:30pm 11.2 3.9 5.3 67 2.7 SSW 33 50 18 27 1023.6 1023.6 0.0
26/11:13pm 11.1 3.3 4.8 65 2.9 SSW 35 54 19 29 1023.6 1023.6 0.0
26/11:00pm 11.1 2.9 4.8 65 2.9 SSW 37 48 20 26 1023.6 1023.6 0.0
26/10:32pm 11.5 4.3 5.2 65 2.9 SSW 32 50 17 27 1023.5 1023.5 0.0
26/10:30pm 11.5 4.4 5.6 67 2.7 SSW 32 46 17 25 1023.5 1023.5 0.0
26/10:00pm 11.3 4.3 6.0 70 2.5 SSW 32 48 17 26 1023.4 1023.4 0.0
26/09:30pm 11.3 3.5 6.8 74 2.1 SSW 37 46 20 25 1023.0 1023.0 0.0
26/09:00pm 11.2 3.7 6.5 73 2.2 SSW 35 46 19 25 1022.8 1022.8 0.0
26/08:30pm 11.3 3.4 6.4 72 2.3 SW 37 52 20 28 1022.6 1022.6 0.0
26/08:00pm 11.8 4.1 7.3 74 2.2 SW 37 54 20 29 1022.5 1022.5 0.0
26/07:48pm 11.7 4.4 7.0 73 2.3 SSW 35 54 19 29 1022.4 1022.4 0.0
26/07:30pm 11.6 3.7 6.3 70 2.5 SSW 37 50 20 27 1022.0 1022.0 0.0
26/07:00pm 12.6 4.6 7.5 71 2.5 SW 39 50 21 27 1021.8 1021.8 0.0
26/06:44pm 12.2 4.2 7.3 72 2.4 SW 39 57 21 31 1021.7 1021.7 0.0
26/06:30pm 11.9 2.9 6.6 70 2.5 SW 43 56 23 30 1021.5 1021.5 0.0
26/06:21pm 12.0 4.0 7.5 74 2.2 SW 39 57 21 31 1021.4 1021.4 0.0
26/06:00pm 12.0 3.1 6.7 70 2.5 SW 43 52 23 28 1021.2 1021.2 0.0
26/05:47pm 12.0 3.8 6.5 69 2.6 SW 39 59 21 32 1021.2 1021.2 0.0
26/05:30pm 12.1 3.6 7.0 71 2.5 SW 41 50 22 27 1021.1 1021.1 0.0
26/05:00pm 12.9 4.0 7.6 70 2.6 SW 44 56 24 30 1021.0 1021.0 0.0
26/04:30pm 12.6 5.1 8.1 74 2.2 SW 37 52 20 28 1021.0 1021.0 0.0
26/04:00pm 12.6 3.6 7.3 70 2.6 SW 44 56 24 30 1020.8 1020.8 0.0
26/03:30pm 13.2 4.5 7.6 69 2.8 SW 43 56 23 30 1020.7 1020.7 0.0
26/03:00pm 11.8 2.6 8.1 78 1.8 SW 46 57 25 31 1020.5 1020.5 0.0
26/02:34pm 12.3 3.6 7.6 73 2.3 SW 43 61 23 33 1020.4 1020.4 0.0
26/02:30pm 12.5 4.9 7.6 72 2.4 SW 37 52 20 28 1020.3 1020.3 0.0
26/02:16pm 13.6 6.4 9.1 74 2.3 SW 37 56 20 30 1020.3 1020.3 0.0
26/02:00pm 13.5 4.6 7.7 68 2.9 SW 44 54 24 29 1020.3 1020.3 0.0
26/01:30pm 13.6 5.0 8.0 69 2.8 SW 43 54 23 29 1020.2 1020.2 0.0
26/01:00pm 13.7 4.3 7.2 65 3.2 SW 46 54 25 29 1020.2 1020.2 0.0
26/12:30pm 13.2 4.1 6.1 62 3.4 SW 43 54 23 29 1020.0 1020.0 0.0
26/12:00pm 13.7 4.5 6.3 61 3.5 SW 44 56 24 30 1019.8 1019.8 0.0
26/11:30am 13.6 4.1 6.5 62 3.4 SW 46 56 25 30 1019.5 1019.5 0.0
26/11:06am 12.7 4.6 7.0 68 2.8 SW 39 57 21 31 1019.3 1019.3 0.0
26/11:00am 12.7 5.2 7.8 72 2.4 SW 37 54 20 29 1019.3 1019.3 0.0
26/10:30am 13.6 5.3 7.6 67 3.0 SW 41 54 22 29 1019.0 1019.0 0.0
26/10:00am 12.9 3.4 6.5 65 3.1 SW 46 57 25 31 1018.8 1018.8 0.0
26/09:30am 12.8 3.7 6.8 67 2.9 SW 44 56 24 30 1018.7 1018.7 0.0
26/09:00am 12.7 2.4 6.7 67 2.9 SW 50 59 27 32 1018.4 1018.3 1.0
26/08:30am 12.8 2.6 7.0 68 2.8 SW 50 61 27 33 1018.0 1017.9 1.0
26/08:00am 12.4 3.0 7.3 71 2.5 SW 46 56 25 30 1017.5 1017.5 1.0
26/07:30am 12.2 3.5 7.5 73 2.3 SW 43 54 23 29 1017.1 1017.1 1.0
26/07:00am 11.8 3.2 8.8 82 1.5 SW 44 57 24 31 1016.8 1016.8 1.0
26/06:30am 11.8 4.0 9.7 87 1.1 SW 41 54 22 29 1016.6 1016.6 1.0
26/06:00am 11.5 3.2 9.2 86 1.2 SW 43 52 23 28 1016.2 1016.2 1.0
26/05:30am 11.5 3.1 9.8 89 0.9 SW 44 54 24 29 1015.9 1015.9 1.0
26/05:19am 11.2 2.4 9.6 90 0.8 SW 46 54 25 29 1015.8 1015.8 1.0
26/05:00am 11.6 2.6 10.2 91 0.7 SW 48 61 26 33 1015.5 1015.5 1.0
26/04:59am 11.6 2.2 10.2 91 0.7 SW 50 61 27 33 1015.5 1015.5 1.0
26/04:50am 12.3 6.0 10.9 91 0.7 W 35 65 19 35 1015.3 1015.3 1.0
26/04:35am 12.5 6.6 11.1 91 0.7 W 33 48 18 26 1015.2 1015.2 1.0
26/04:30am 12.5 6.8 11.1 91 0.7 W 32 48 17 26 1015.2 1015.2 1.0
26/04:00am 12.4 5.6 10.8 90 0.8 W 37 56 20 30 1015.2 1015.2 0.4
26/03:37am 12.4 6.0 10.8 90 0.8 W 35 48 19 26 1015.3 1015.3 0.4
26/03:30am 12.2 5.8 10.6 90 0.8 W 35 48 19 26 1015.3 1015.3 0.4
26/03:20am 12.5 6.2 10.9 90 0.8 W 35 52 19 28 1015.3 1015.3 0.4
26/03:18am 12.4 6.3 10.6 89 0.9 W 33 52 18 28 1015.3 1015.3 0.4
26/03:08am 12.3 5.1 10.5 89 0.9 W 39 54 21 29 1015.4 1015.4 0.4
26/03:00am 12.4 5.2 10.6 89 0.9 W 39 56 21 30 1015.5 1015.5 0.4
26/02:58am 12.3 5.5 10.5 89 0.9 W 37 56 20 30 1015.5 1015.5 0.4
26/02:30am 12.3 5.5 10.5 89 0.9 W 37 56 20 30 1015.7 1015.7 0.4
26/02:24am 12.3 5.9 10.7 90 0.8 W 35 54 19 29 1015.7 1015.7 0.4
26/02:00am 11.9 5.0 10.3 90 0.8 W 37 54 20 29 1016.0 1016.0 0.4
26/01:36am 12.3 5.7 10.0 86 1.2 W 35 57 19 31 1016.1 1016.1 0.0
26/01:30am 12.4 6.5 10.3 87 1.1 W 32 44 17 24 1016.1 1016.1 0.0
26/01:10am 12.6 5.9 9.6 82 1.5 W 35 54 19 29 1016.3 1016.3 0.0
26/01:00am 12.9 6.2 9.5 80 1.7 W 35 50 19 27 1016.4 1016.4 0.0
26/12:34am 12.8 6.1 9.8 82 1.5 W 35 54 19 29 1016.5 1016.5 0.0
26/12:30am 12.6 6.5 9.6 82 1.5 W 32 44 17 24 1016.5 1016.5 0.0
26/12:16am 12.6 5.4 9.2 80 1.7 W 37 59 20 32 1016.6 1016.6 0.0
26/12:00am 12.9 6.5 9.2 78 1.9 W 33 46 18 25 1016.7 1016.7 0.0
 
Date/Time
EDT
Temp
°C
App
Temp
°C
Dew
Point
Rel
Hum
%
Delta-T
°C
Wind Press
QNH
hPa
Press
MSL
hPa
Rain
since 9 am
mm
Dir
 
Spd
km/h
Gust
km/h
Spd
kts
Gust
kts
25/11:37pm 12.7 5.8 9.0 78 1.9 W 35 57 19 31 1016.9 1016.9 0.0
25/11:30pm 12.7 6.3 9.2 79 1.8 W 33 48 18 26 1017.0 1017.0 0.0
25/11:00pm 12.6 6.0 8.7 77 2.0 W 33 46 18 25 1017.1 1017.1 0.0
25/10:30pm 12.6 5.9 8.3 75 2.1 W 33 50 18 27 1017.2 1017.2 0.0
25/10:00pm 12.6 6.1 8.3 75 2.1 W 32 43 17 23 1017.4 1017.4 0.0
25/09:30pm 12.3 5.6 8.0 75 2.1 W 33 48 18 26 1017.2 1017.2 0.0
25/09:00pm 12.5 5.9 7.6 72 2.4 W 32 50 17 27 1017.2 1017.2 0.0
25/08:31pm 12.4 5.6 7.7 73 2.3 W 33 54 18 29 1017.0 1017.0 0.0
25/08:30pm 12.4 5.6 7.7 73 2.3 W 33 50 18 27 1017.1 1017.1 0.0
25/08:00pm 12.4 6.1 7.5 72 2.4 WSW 30 54 16 29 1016.8 1016.8 0.0
25/07:30pm 12.3 5.8 8.2 76 2.0 WSW 32 57 17 31 1016.6 1016.6 0.0
25/07:00pm 12.7 6.0 7.4 70 2.6 W 32 57 17 31 1016.2 1016.2 0.0
25/06:30pm 12.9 6.6 7.6 70 2.6 W 30 57 16 31 1015.9 1015.9 0.0
25/06:00pm 12.4 5.8 7.7 73 2.3 WSW 32 57 17 31 1015.9 1015.9 0.0
25/05:30pm 11.9 4.4 8.0 77 1.9 W 37 59 20 32 1015.9 1015.9 0.0
25/05:00pm 12.0 4.5 8.1 77 1.9 W 37 57 20 31 1015.7 1015.7 0.0
25/04:35pm 12.6 5.8 7.9 73 2.3 W 33 57 18 31 1015.6 1015.6 0.0
25/04:30pm 12.7 6.2 8.2 74 2.2 W 32 48 17 26 1015.7 1015.7 0.0
25/04:00pm 12.4 6.5 9.1 80 1.7 WSW 30 54 16 29 1015.6 1015.6 0.0
25/03:30pm 13.0 6.4 8.7 75 2.2 W 33 52 18 28 1015.4 1015.4 0.0
25/03:02pm 12.9 7.5 9.4 79 1.8 WSW 28 48 15 26 1015.4 1015.4 0.0
25/03:00pm 13.0 8.0 9.6 80 1.7 WSW 26 48 14 26 1015.4 1015.4 0.0
25/02:42pm 12.3 5.4 9.0 80 1.7 WSW 35 56 19 30 1015.3 1015.3 0.0
25/02:41pm 12.5 4.9 9.1 80 1.7 SW 39 56 21 30 1015.3 1015.3 0.0
25/02:30pm 13.0 6.1 8.9 76 2.1 W 35 54 19 29 1015.2 1015.2 0.0
25/02:00pm 12.4 5.9 9.1 80 1.7 W 33 61 18 33 1015.1 1015.1 0.0
25/01:30pm 13.3 5.7 9.0 75 2.2 W 39 65 21 35 1014.9 1014.9 0.0
25/01:00pm 12.5 5.3 9.3 81 1.6 W 37 57 20 31 1014.7 1014.7 0.0
25/12:30pm 13.3 6.9 8.6 73 2.4 W 32 59 17 32 1014.6 1014.6 0.0
25/12:00pm 13.3 6.7 8.4 72 2.5 W 33 54 18 29 1014.2 1014.2 0.0
25/11:32am 13.1 6.7 8.4 73 2.3 W 32 50 17 27 1014.0 1014.0 0.0
25/11:30am 13.1 6.5 8.6 74 2.3 W 33 50 18 27 1014.0 1014.0 0.0
25/11:00am 12.7 5.7 8.4 75 2.1 W 35 61 19 33 1013.7 1013.7 0.0
25/10:30am 12.8 6.3 8.3 74 2.2 W 32 52 17 28 1013.5 1013.5 0.0
25/10:01am 12.9 7.3 8.8 76 2.1 W 28 50 15 27 1013.3 1013.3 0.0
25/10:00am 13.0 7.9 9.1 77 2.0 W 26 50 14 27 1013.3 1013.3 0.0
25/09:30am 12.6 6.9 8.5 76 2.0 WSW 28 52 15 28 1013.0 1013.0 0.0
25/09:00am 12.6 6.0 8.7 77 2.0 WSW 33 56 18 30 1012.8 1012.8 2.2
25/08:30am 12.4 6.0 8.5 77 1.9 WSW 32 54 17 29 1012.2 1012.2 2.2
25/08:00am 12.9 6.0 8.8 76 2.1 WSW 35 61 19 33 1011.7 1011.7 2.2
25/07:30am 12.1 6.1 8.8 80 1.7 W 30 50 16 27 1011.4 1011.4 2.2
25/07:00am 12.5 5.8 8.2 75 2.1 W 33 54 18 29 1010.9 1010.9 2.2
25/06:30am 12.1 5.5 8.6 79 1.7 WSW 33 54 18 29 1010.5 1010.5 2.2
25/06:00am 11.8 4.8 8.5 80 1.6 WSW 35 59 19 32 1010.2 1010.2 2.2
25/05:30am 11.4 4.4 8.4 82 1.5 WSW 35 61 19 33 1009.7 1009.7 2.2
25/05:00am 12.0 5.1 9.0 82 1.5 WSW 35 59 19 32 1009.3 1009.3 2.0
25/04:30am 11.8 5.3 8.3 79 1.7 W 32 54 17 29 1009.0 1009.0 2.0
25/04:00am 12.3 5.3 8.4 77 1.9 W 35 61 19 33 1008.6 1008.5 2.0
25/03:30am 12.3 5.1 9.0 80 1.7 W 37 59 20 32 1008.6 1008.5 2.0
25/03:00am 12.3 5.4 8.8 79 1.8 W 35 61 19 33 1008.6 1008.5 2.0
25/02:30am 12.0 4.0 9.0 82 1.5 W 41 63 22 34 1008.6 1008.5 2.0
25/02:00am 12.6 5.0 9.1 79 1.8 W 39 61 21 33 1008.4 1008.3 2.0
25/01:30am 12.4 4.7 8.7 78 1.9 W 39 61 21 33 1008.4 1008.3 2.0
25/01:00am 12.2 4.8 8.3 77 1.9 W 37 56 20 30 1008.6 1008.5 2.0
25/12:30am 12.4 4.7 8.5 77 1.9 W 39 59 21 32 1008.6 1008.5 1.8
25/12:00am 12.7 5.4 8.8 77 2.0 W 37 56 20 30 1008.5 1008.4 1.8
 
Date/Time
EDT
Temp
°C
App
Temp
°C
Dew
Point
Rel
Hum
%
Delta-T
°C
Wind Press
QNH
hPa
Press
MSL
hPa
Rain
since 9 am
mm
Dir
 
Spd
km/h
Gust
km/h
Spd
kts
Gust
kts
24/11:31pm 12.9 5.8 8.2 73 2.3 W 35 54 19 29 1008.7 1008.6 1.8
24/11:30pm 13.0 5.6 8.5 74 2.3 W 37 54 20 29 1008.7 1008.6 1.8
24/11:00pm 13.1 6.5 8.6 74 2.3 W 33 50 18 27 1008.8 1008.7 1.8
24/10:41pm 12.8 6.2 7.9 72 2.4 W 32 50 17 27 1009.0 1009.0 1.8
24/10:30pm 13.0 6.2 7.5 69 2.7 W 33 50 18 27 1009.0 1009.0 1.8
24/10:25pm 13.0 6.9 8.1 72 2.4 W 30 48 16 26 1009.0 1009.0 1.8
24/10:00pm 13.0 6.2 7.7 70 2.6 W 33 48 18 26 1008.8 1008.7 1.8
24/09:37pm 12.8 5.8 7.0 68 2.8 W 33 52 18 28 1008.7 1008.6 1.8
24/09:30pm 12.9 5.2 6.9 67 2.9 W 37 52 20 28 1008.6 1008.5 1.8
24/09:00pm 12.9 5.5 6.9 67 2.9 W 35 54 19 29 1008.3 1008.2 1.8
24/08:30pm 12.9 5.9 6.7 66 3.0 W 33 52 18 28 1008.0 1007.9 1.8
24/08:00pm 13.3 7.1 8.0 70 2.6 W 30 50 16 27 1007.4 1007.3 1.8
24/07:30pm 13.6 7.6 8.7 72 2.5 WSW 30 50 16 27 1006.9 1006.8 1.8
24/07:01pm 13.5 8.0 9.2 75 2.2 W 28 48 15 26 1006.0 1005.9 1.8
24/07:00pm 13.6 8.6 9.6 77 2.1 W 26 46 14 25 1006.0 1005.9 1.8
24/06:30pm 13.5 9.3 9.7 78 2.0 W 22 41 12 22 1005.8 1005.7 1.8
24/06:00pm 13.5 9.3 9.9 79 1.9 WSW 22 43 12 23 1005.8 1005.7 1.8
24/05:30pm 12.7 6.3 9.2 79 1.8 SW 33 46 18 25 1005.8 1005.7 1.8
24/05:00pm 12.1 5.8 9.7 85 1.2 SW 33 44 18 24 1005.9 1005.8 1.8
24/04:53pm 12.1 6.0 10.3 89 0.9 SW 33 44 18 24 1005.6 1005.6 1.8
24/04:30pm 12.2 7.5 10.8 91 0.7 W 26 39 14 21 1005.8 1005.7 1.8
24/04:00pm 12.5 7.9 11.2 92 0.7 W 26 48 14 26 1005.8 1005.7 1.8
24/03:30pm 12.7 9.3 11.1 90 0.8 W 20 30 11 16 1005.9 1005.8 1.4
24/03:00pm 13.1 11.4 11.2 88 1.0 WSW 11 17 6 9 1006.0 1005.9 1.2
24/02:47pm 13.4 11.7 11.1 86 1.2 W 11 26 6 14 1005.9 1005.8 1.2
24/02:30pm 14.3 14.9 12.0 86 1.2 CALM 0 4 0 2 1006.1 1006.0 1.0
24/02:00pm 14.4 12.9 11.9 85 1.4 ENE 11 15 6 8 1006.4 1006.3 1.0
24/01:30pm 14.6 12.0 12.1 85 1.4 ENE 17 20 9 11 1006.7 1006.6 1.0
24/01:00pm 15.1 11.5 13.0 87 1.2 ENE 24 32 13 17 1007.0 1006.9 1.0
24/12:30pm 14.9 10.9 12.9 88 1.1 ENE 26 32 14 17 1006.9 1006.8 1.0
24/12:00pm 15.3 12.1 13.0 86 1.3 ENE 22 26 12 14 1007.2 1007.1 1.0
24/11:30am 15.3 12.7 13.8 91 0.8 ENE 20 24 11 13 1007.4 1007.3 1.0

Other Formats:

Comma delimited format used in spreadsheet applications
http://www.bom.gov.au/fwo/IDT60801/IDT60801.95954.axf

JavaScript Object Notation format (JSON) in row-major order
http://www.bom.gov.au/fwo/IDT60801/IDT60801.95954.json